Aérodrome :
LOGIN :

S'inscrire | Disclaimer

   EN    FR    IT 

 










Légende :    VFR   VFR Marginal   IFR   IFR Intensif   IFR Très Intensif
Visi : 
Plafond : 
>= 8 km
>= 3000ft
5 à 8 km
1000 à 3000 ft
1500m à 5 km
500 à 1000 ft
800 à 1500m
200 à 500 ft
< 800m
< 200 ft
Symboles :   Orages  Brouillard  Fortes neiges  Fortes précipitations  Vent > 20 kt
SIGMETs :   Divers  Orages  Givrage  Turbulence  Onde Orograph.  Cendres Volcan.






- Altitude de l'aérodrome : 659 ft
- Code IATA : LYN


LFLY - Lyon Bron

DERNIER METAR :
  • 200900Z AUTO 33004KT CAVOK 19/14 Q1005 TEMPO 18015G25KT FEW080TCU

METARs EXPIRÉS :
  • 200830Z AUTO 07003KT 040V100 CAVOK 18/14 Q1005 TEMPO 18015G25KT FEW080TCU
  • 200800Z AUTO VRB03KT CAVOK 18/14 Q1005 TEMPO 18015G25KT FEW080TCU
  • 200730Z AUTO VRB03KT CAVOK 18/13 Q1005 TEMPO 18015G25KT FEW080TCU
  • 200700Z AUTO VRB03KT CAVOK 17/13 Q1005 TEMPO 18015G25KT FEW080TCU
  • 200630Z AUTO 00000KT CAVOK 17/13 Q1005 TEMPO 18015G25KT FEW080TCU

TAF TAF LFLY
Valide du 20 à 06h jusqu'au 21 à 06h UTC


200500Z 2006/2106 18012KT CAVOK
PROB30
TEMPO 2006/2013 18015G25KT FEW080TCU
TEMPO 2013/2015 18025G40KT
TEMPO 2015/2021 2000 TSRA BKN050CB
PROB40
TEMPO 2015/2017 25025G50KT
BECMG 2017/2019 VRB02KT
PROB40
TEMPO 2021/2024 3000 RA BKN012
PROB40
TEMPO 2021/2024 FEW030CB
ATIS : +33 4 72 15 87 96



MET'MAP, la Météo Aéronautique d'un coup d'oeil ! - Copyright ORBIFLY Décembre 2007 - Disclaimer

ORBIFLY MET'MAP TEAM :

Programmation & Développement : Alexandra Zaïnal
Conception & Développement : Baudouin d'Aumeries
Co-Programmation & Développement : Marc-Olivier Méhu
Soutien technique & logistique : Manuel Goepfert

Contact : metmap@orbifly.com




SOURCES & CREDITS :

   NOAA